Time;durP1;ratioP1;P1;durP2;ratioP2;P2;SDS_P1;SDS_P2;PMS_P1;PMS_P2;Temp;Humidity;BMP_temperature;BMP_pressure;BME280_temperature;BME280_humidity;BME280_pressure;Samples;Min_cycle;Max_cycle;Signal;HPM_P1;HPM_P2
2023/02/18 19:56:53;;;;;;;7.70;3.00;;;;;;;5.72;56.93;99072.95;103252;1285;606339;-75
2023/02/18 19:59:21;;;;;;;8.80;3.10;;;;;;;5.85;56.36;99069.95;104820;1270;262308;-75
2023/02/18 20:01:49;;;;;;;10.20;3.80;;;;;;;5.81;56.39;99070.11;105181;1269;59365;-76
2023/02/18 20:04:16;;;;;;;7.10;3.10;;;;;;;5.76;56.42;99071.23;106155;1270;64957;-75
2023/02/18 20:06:43;;;;;;;6.60;2.40;;;;;;;5.71;56.59;99070.41;105288;1269;60091;-75
2023/02/18 20:09:11;;;;;;;7.80;2.80;;;;;;;5.67;56.53;99072.60;105313;1269;65569;-75
2023/02/18 20:11:41;;;;;;;7.90;3.10;;;;;;;5.65;56.56;99073.32;105240;1264;59297;-75
2023/02/18 20:14:08;;;;;;;11.90;3.70;;;;;;;5.63;56.53;99075.59;105995;1270;59223;-77
2023/02/18 20:16:35;;;;;;;7.80;3.10;;;;;;;5.62;56.69;99073.08;105166;1270;65269;-76
2023/02/18 20:19:02;;;;;;;9.40;3.80;;;;;;;5.60;56.67;99076.50;105957;1267;59722;-74
2023/02/18 20:21:29;;;;;;;9.60;3.70;;;;;;;5.58;56.72;99078.20;105241;1270;65449;-75
2023/02/18 20:24:00;;;;;;;11.50;4.10;;;;;;;5.58;56.65;99077.03;105127;1268;59557;-74
2023/02/18 20:26:28;;;;;;;9.70;3.60;;;;;;;5.56;56.59;99075.79;104879;1268;59774;-74
2023/02/18 20:28:55;;;;;;;8.80;4.40;;;;;;;5.54;56.70;99075.25;105077;1265;65602;-74
2023/02/18 20:31:22;;;;;;;11.10;4.00;;;;;;;5.52;56.81;99075.40;105093;1268;59918;-77
2023/02/18 20:33:49;;;;;;;9.80;3.40;;;;;;;5.51;56.75;99073.23;106470;1267;64393;-74
2023/02/18 20:36:16;;;;;;;11.40;3.40;;;;;;;5.49;56.74;99073.74;105252;1264;59825;-74
2023/02/18 20:38:42;;;;;;;6.30;3.10;;;;;;;5.47;56.80;99072.84;106312;1256;59791;-75
2023/02/18 20:41:13;;;;;;;7.10;3.10;;;;;;;5.47;56.69;99070.58;105768;1256;74443;-73
2023/02/18 20:43:45;;;;;;;9.20;3.90;;;;;;;5.49;56.69;99070.63;106356;1253;59858;-74
2023/02/18 20:46:19;;;;;;;10.10;3.20;;;;;;;5.48;56.71;99067.66;106449;1254;65835;-75
2023/02/18 20:48:47;;;;;;;9.30;3.20;;;;;;;5.44;56.78;99065.20;105624;1260;59816;-77
2023/02/18 20:51:20;;;;;;;9.30;3.60;;;;;;;5.43;56.69;99068.80;105684;1259;59563;-77
2023/02/18 20:53:47;;;;;;;10.40;3.90;;;;;;;5.42;56.64;99068.68;105889;1255;65919;-75
2023/02/18 20:56:14;;;;;;;9.50;3.80;;;;;;;5.42;56.63;99070.23;105916;1260;59728;-75
2023/02/18 20:58:41;;;;;;;8.20;3.60;;;;;;;5.42;56.42;99073.88;105653;1258;65579;-75
2023/02/18 21:01:11;;;;;;;12.00;4.50;;;;;;;5.42;56.54;99069.08;105489;1258;59650;-75
2023/02/18 21:03:39;;;;;;;8.40;3.40;;;;;;;5.40;56.45;99067.07;105605;1258;59568;-73
2023/02/18 21:06:10;;;;;;;11.00;3.60;;;;;;;5.40;56.55;99067.42;105634;1254;65891;-74
2023/02/18 21:08:39;;;;;;;8.60;3.30;;;;;;;5.40;56.54;99071.64;105702;1258;60042;-75
2023/02/18 21:11:16;;;;;;;8.90;3.80;;;;;;;5.40;56.45;99070.78;105366;1257;65601;-75
2023/02/18 21:13:45;;;;;;;6.90;2.80;;;;;;;5.40;56.46;99067.64;105430;1254;59707;-74
2023/02/18 21:16:13;;;;;;;6.40;2.50;;;;;;;5.39;56.44;99064.38;105760;1259;59736;-75
2023/02/18 21:18:41;;;;;;;9.70;2.70;;;;;;;5.39;56.46;99062.66;105504;1254;64946;-75
2023/02/18 21:21:08;;;;;;;6.80;2.40;;;;;;;5.38;56.40;99062.02;105727;1260;61843;-75
2023/02/18 21:23:39;;;;;;;9.50;3.00;;;;;;;5.37;56.40;99057.77;105694;1260;64664;-74
2023/02/18 21:26:16;;;;;;;8.70;3.00;;;;;;;5.37;56.38;99057.55;106168;1254;59794;-76
2023/02/18 21:28:47;;;;;;;10.80;3.70;;;;;;;5.37;56.24;99054.90;105464;1257;59820;-76
2023/02/18 21:31:24;;;;;;;7.20;3.10;;;;;;;5.38;56.12;99054.71;105784;1260;65748;-75
2023/02/18 21:34:02;;;;;;;13.70;4.30;;;;;;;5.38;56.16;99060.09;105576;1255;59693;-75
2023/02/18 21:36:30;;;;;;;7.50;4.00;;;;;;;5.37;56.19;99058.90;105795;1257;65317;-76
2023/02/18 21:38:58;;;;;;;9.40;3.30;;;;;;;5.36;56.05;99060.22;105498;1262;59611;-76
2023/02/18 21:41:26;;;;;;;10.20;3.20;;;;;;;5.36;56.06;99057.81;105483;1260;59749;-75
2023/02/18 21:43:54;;;;;;;7.80;2.70;;;;;;;5.36;56.08;99060.96;105790;1254;65799;-73
2023/02/18 21:46:24;;;;;;;8.20;2.40;;;;;;;5.35;56.19;99065.72;105674;1258;59712;-77
2023/02/18 21:49:01;;;;;;;7.20;2.70;;;;;;;5.35;56.07;99063.35;105762;1257;65384;-75
2023/02/18 21:54:29;;;;;;;10.20;3.60;;;;;;;5.34;56.16;99057.95;106006;1254;59704;-77
2023/02/18 21:56:58;;;;;;;6.90;3.00;;;;;;;5.35;56.16;99057.94;105699;1260;65901;-74
2023/02/18 21:59:26;;;;;;;7.20;3.20;;;;;;;5.35;56.23;99060.02;105885;1263;59513;-75
2023/02/18 22:01:53;;;;;;;9.10;2.80;;;;;;;5.34;56.18;99062.52;105433;1260;65524;-76
2023/02/18 22:04:21;;;;;;;8.90;3.50;;;;;;;5.34;56.26;99066.02;105739;1260;59951;-79
2023/02/18 22:06:51;;;;;;;9.30;3.50;;;;;;;5.34;56.17;99061.64;105775;1259;59618;-76
2023/02/18 22:09:18;;;;;;;8.80;2.90;;;;;;;5.34;56.18;99061.16;105973;1255;65807;-73
2023/02/18 22:11:45;;;;;;;7.20;2.80;;;;;;;5.32;56.19;99058.81;105588;1260;59816;-76
2023/02/18 22:14:13;;;;;;;8.50;3.20;;;;;;;5.32;56.24;99063.05;105790;1254;65546;-75
2023/02/18 22:16:41;;;;;;;8.10;2.70;;;;;;;5.32;56.26;99062.50;105895;1257;59554;-74
2023/02/18 22:19:13;;;;;;;9.00;3.30;;;;;;;5.32;56.28;99064.45;105807;1257;59731;-75
2023/02/18 22:21:41;;;;;;;8.80;2.80;;;;;;;5.32;56.32;99070.90;105881;1260;65629;-75
2023/02/18 22:24:11;;;;;;;8.00;2.80;;;;;;;5.32;56.26;99071.60;105701;1260;59813;-74
2023/02/18 22:26:38;;;;;;;9.40;2.80;;;;;;;5.31;56.40;99066.21;105778;1255;65680;-75
2023/02/18 22:29:06;;;;;;;6.00;2.40;;;;;;;5.32;56.54;99062.54;105563;1260;59744;-75
2023/02/18 22:31:35;;;;;;;7.00;2.60;;;;;;;5.31;56.50;99059.43;105762;1264;59645;-74
2023/02/18 22:34:02;;;;;;;6.10;2.70;;;;;;;5.32;56.59;99061.48;106212;1254;65069;-76
2023/02/18 22:36:30;;;;;;;6.90;2.70;;;;;;;5.31;56.56;99062.98;105834;1254;59721;-75
2023/02/18 22:38:59;;;;;;;7.10;2.60;;;;;;;5.28;56.60;99061.44;105630;1254;65609;-77
2023/02/18 22:41:27;;;;;;;8.40;2.10;;;;;;;5.26;56.53;99054.06;105951;1254;59649;-77
2023/02/18 22:43:58;;;;;;;7.60;2.00;;;;;;;5.25;56.71;99051.55;105862;1257;59643;-75
2023/02/18 22:46:28;;;;;;;9.00;2.70;;;;;;;5.20;56.74;99047.05;105772;1259;64782;-75
2023/02/18 22:48:59;;;;;;;7.20;2.40;;;;;;;5.22;56.65;99048.62;105702;1259;59653;-75
2023/02/18 22:51:36;;;;;;;8.60;2.90;;;;;;;5.18;56.73;99054.52;105873;1261;64413;-75
2023/02/18 22:54:09;;;;;;;6.00;2.30;;;;;;;5.12;56.92;99060.41;105818;1257;60901;-75
2023/02/18 22:56:38;;;;;;;6.90;2.50;;;;;;;5.10;56.90;99061.41;106071;1254;59865;-74
2023/02/18 22:59:13;;;;;;;9.10;2.50;;;;;;;5.08;57.00;99060.70;105717;1254;66189;-74
2023/02/18 23:01:41;;;;;;;7.50;2.30;;;;;;;5.05;56.97;99064.08;105667;1259;60133;-76
2023/02/18 23:04:10;;;;;;;6.90;2.50;;;;;;;5.03;57.10;99062.16;105840;1260;65228;-75
2023/02/18 23:06:54;;;;;;;5.60;2.30;;;;;;;5.02;57.21;99069.26;106910;1254;59704;-74
2023/02/18 23:09:33;;;;;;;7.70;2.20;;;;;;;5.00;57.31;99067.41;105850;1256;60049;-75
2023/02/18 23:12:03;;;;;;;8.70;2.60;;;;;;;4.96;57.52;99065.83;105862;1260;65782;-76
2023/02/18 23:14:35;;;;;;;6.30;1.80;;;;;;;4.93;57.60;99066.11;105920;1253;60000;-74
2023/02/18 23:17:12;;;;;;;7.60;2.60;;;;;;;4.89;57.68;99066.73;105738;1254;65401;-75
2023/02/18 23:19:43;;;;;;;7.90;2.50;;;;;;;4.86;57.80;99067.98;105571;1260;59839;-75
2023/02/18 23:22:11;;;;;;;6.60;2.40;;;;;;;4.84;57.90;99069.58;106037;1253;59625;-74
2023/02/18 23:24:40;;;;;;;7.30;2.70;;;;;;;4.81;57.89;99061.88;105678;1260;64691;-74
2023/02/18 23:27:10;;;;;;;6.00;2.50;;;;;;;4.80;57.92;99061.48;105839;1261;59813;-74
2023/02/18 23:29:38;;;;;;;7.30;2.60;;;;;;;4.78;58.05;99062.84;105637;1254;66358;-73
2023/02/18 23:32:05;;;;;;;6.40;2.20;;;;;;;4.75;58.08;99067.79;105858;1254;60060;-75
2023/02/18 23:34:36;;;;;;;9.80;2.40;;;;;;;4.73;58.14;99067.61;105530;1257;59615;-75
2023/02/18 23:37:05;;;;;;;5.40;2.10;;;;;;;4.72;58.21;99074.48;106008;1257;64764;-74
2023/02/18 23:39:35;;;;;;;6.40;2.40;;;;;;;4.72;58.26;99075.19;105739;1254;67076;-76
2023/02/18 23:42:03;;;;;;;8.10;2.60;;;;;;;4.71;58.36;99073.33;105800;1254;65536;-76
2023/02/18 23:44:30;;;;;;;6.70;2.40;;;;;;;4.70;58.35;99068.34;106087;1257;59576;-75
2023/02/18 23:46:57;;;;;;;7.00;2.60;;;;;;;4.69;58.27;99071.02;106291;1259;59736;-75
2023/02/18 23:49:25;;;;;;;5.60;2.50;;;;;;;4.69;58.33;99073.34;105821;1253;66238;-75
2023/02/18 23:51:53;;;;;;;6.60;2.90;;;;;;;4.68;58.41;99069.23;105946;1256;59733;-76
2023/02/18 23:54:19;;;;;;;9.30;3.20;;;;;;;4.67;58.44;99067.18;106094;1254;65520;-75
2023/02/18 23:56:47;;;;;;;9.30;2.90;;;;;;;4.66;58.54;99069.37;105509;1255;60209;-75
2023/02/18 23:59:14;;;;;;;6.30;2.90;;;;;;;4.64;58.61;99070.04;105963;1253;59630;-74
